sensor_id;sensor_type;location;lat;lon;timestamp;noise_LAeq;noise_LA_min;noise_LA_max;noise_LA01;noise_LA95
76339;Laerm;26644;50.248;19.032;2023-06-10T00:02:36;45.50;41.31;54.97;;
76339;Laerm;26644;50.248;19.032;2023-06-10T00:05:42;46.17;41.89;58.61;;
76339;Laerm;26644;50.248;19.032;2023-06-10T00:08:47;45.41;42.04;53.74;;
76339;Laerm;26644;50.248;19.032;2023-06-10T00:11:52;45.19;41.30;49.43;;
76339;Laerm;26644;50.248;19.032;2023-06-10T00:14:59;45.69;41.97;52.73;;
76339;Laerm;26644;50.248;19.032;2023-06-10T00:18:05;46.46;42.77;50.25;;
76339;Laerm;26644;50.248;19.032;2023-06-10T00:21:11;45.74;41.78;53.59;;
76339;Laerm;26644;50.248;19.032;2023-06-10T00:24:16;46.04;42.80;49.87;;
76339;Laerm;26644;50.248;19.032;2023-06-10T00:27:21;46.29;43.39;49.21;;
76339;Laerm;26644;50.248;19.032;2023-06-10T00:30:28;46.50;42.55;56.95;;
76339;Laerm;26644;50.248;19.032;2023-06-10T00:33:33;46.76;43.18;51.57;;
76339;Laerm;26644;50.248;19.032;2023-06-10T00:36:39;47.28;43.33;51.60;;
76339;Laerm;26644;50.248;19.032;2023-06-10T00:39:44;45.83;42.22;50.73;;
76339;Laerm;26644;50.248;19.032;2023-06-10T00:42:49;47.06;43.34;52.04;;
76339;Laerm;26644;50.248;19.032;2023-06-10T00:46:00;46.79;42.74;51.52;;
76339;Laerm;26644;50.248;19.032;2023-06-10T00:49:06;49.18;43.39;63.32;;
76339;Laerm;26644;50.248;19.032;2023-06-10T00:52:13;46.99;42.29;55.05;;
76339;Laerm;26644;50.248;19.032;2023-06-10T00:55:20;45.58;42.23;50.21;;
76339;Laerm;26644;50.248;19.032;2023-06-10T00:58:25;45.68;42.36;49.50;;
76339;Laerm;26644;50.248;19.032;2023-06-10T01:01:33;48.41;43.57;64.04;;
76339;Laerm;26644;50.248;19.032;2023-06-10T01:04:39;48.73;43.59;60.67;;
76339;Laerm;26644;50.248;19.032;2023-06-10T01:07:58;48.39;43.11;58.95;;
76339;Laerm;26644;50.248;19.032;2023-06-10T01:11:13;47.22;43.62;51.12;;
76339;Laerm;26644;50.248;19.032;2023-06-10T01:14:23;47.85;43.41;63.36;;
76339;Laerm;26644;50.248;19.032;2023-06-10T01:17:30;46.50;42.61;58.44;;
76339;Laerm;26644;50.248;19.032;2023-06-10T01:20:38;46.43;42.87;53.13;;
76339;Laerm;26644;50.248;19.032;2023-06-10T01:23:47;46.02;42.74;51.20;;
76339;Laerm;26644;50.248;19.032;2023-06-10T01:27:00;46.64;42.88;52.33;;
76339;Laerm;26644;50.248;19.032;2023-06-10T01:30:15;48.02;44.66;54.50;;
76339;Laerm;26644;50.248;19.032;2023-06-10T01:33:29;47.51;43.92;55.39;;
76339;Laerm;26644;50.248;19.032;2023-06-10T01:36:37;46.53;43.39;50.06;;
76339;Laerm;26644;50.248;19.032;2023-06-10T01:39:48;46.66;42.86;56.92;;
76339;Laerm;26644;50.248;19.032;2023-06-10T01:42:54;47.01;43.46;50.83;;
76339;Laerm;26644;50.248;19.032;2023-06-10T01:45:58;47.59;43.54;52.11;;
76339;Laerm;26644;50.248;19.032;2023-06-10T01:49:03;46.56;43.54;50.75;;
76339;Laerm;26644;50.248;19.032;2023-06-10T01:52:08;46.58;43.35;65.59;;
76339;Laerm;26644;50.248;19.032;2023-06-10T01:55:16;47.86;44.40;54.18;;
76339;Laerm;26644;50.248;19.032;2023-06-10T01:58:21;47.55;43.92;51.08;;
76339;Laerm;26644;50.248;19.032;2023-06-10T02:01:27;47.04;43.93;50.90;;
76339;Laerm;26644;50.248;19.032;2023-06-10T02:04:31;47.19;43.85;52.09;;
76339;Laerm;26644;50.248;19.032;2023-06-10T02:07:38;47.66;44.23;52.52;;
76339;Laerm;26644;50.248;19.032;2023-06-10T02:10:45;47.13;43.86;50.63;;
76339;Laerm;26644;50.248;19.032;2023-06-10T02:13:50;47.30;44.34;52.48;;
76339;Laerm;26644;50.248;19.032;2023-06-10T02:16:55;47.35;43.20;52.82;;
76339;Laerm;26644;50.248;19.032;2023-06-10T02:20:00;47.14;43.60;51.60;;
76339;Laerm;26644;50.248;19.032;2023-06-10T02:23:07;51.92;45.04;55.95;;
76339;Laerm;26644;50.248;19.032;2023-06-10T02:26:15;50.22;45.97;62.03;;
76339;Laerm;26644;50.248;19.032;2023-06-10T02:29:19;47.83;44.08;56.03;;
76339;Laerm;26644;50.248;19.032;2023-06-10T02:32:25;47.31;43.06;51.85;;
76339;Laerm;26644;50.248;19.032;2023-06-10T02:35:30;48.27;44.94;52.33;;
76339;Laerm;26644;50.248;19.032;2023-06-10T02:38:35;49.46;45.96;60.29;;
76339;Laerm;26644;50.248;19.032;2023-06-10T02:41:42;52.28;48.17;65.77;;
76339;Laerm;26644;50.248;19.032;2023-06-10T02:44:49;54.09;50.83;57.60;;
76339;Laerm;26644;50.248;19.032;2023-06-10T02:48:04;49.84;45.05;63.75;;
76339;Laerm;26644;50.248;19.032;2023-06-10T02:51:10;48.58;44.68;54.54;;
76339;Laerm;26644;50.248;19.032;2023-06-10T02:54:19;48.96;44.55;56.16;;
76339;Laerm;26644;50.248;19.032;2023-06-10T02:57:28;48.97;45.09;67.79;;
76339;Laerm;26644;50.248;19.032;2023-06-10T03:00:33;48.40;44.40;58.35;;
76339;Laerm;26644;50.248;19.032;2023-06-10T03:03:39;48.62;44.57;64.03;;
76339;Laerm;26644;50.248;19.032;2023-06-10T03:06:46;48.88;45.29;58.55;;
76339;Laerm;26644;50.248;19.032;2023-06-10T03:09:58;49.73;45.67;63.44;;
76339;Laerm;26644;50.248;19.032;2023-06-10T03:13:05;49.98;46.94;53.76;;
76339;Laerm;26644;50.248;19.032;2023-06-10T03:16:13;49.41;45.91;56.36;;
76339;Laerm;26644;50.248;19.032;2023-06-10T03:19:18;50.20;46.50;58.56;;
76339;Laerm;26644;50.248;19.032;2023-06-10T03:22:26;51.48;46.40;71.80;;
76339;Laerm;26644;50.248;19.032;2023-06-10T03:25:41;49.94;45.72;62.66;;
76339;Laerm;26644;50.248;19.032;2023-06-10T03:28:53;49.40;45.13;58.79;;
76339;Laerm;26644;50.248;19.032;2023-06-10T03:31:59;49.78;45.81;67.55;;
76339;Laerm;26644;50.248;19.032;2023-06-10T03:35:07;50.66;46.18;62.33;;
76339;Laerm;26644;50.248;19.032;2023-06-10T03:38:13;49.67;46.07;55.04;;
76339;Laerm;26644;50.248;19.032;2023-06-10T03:41:19;51.68;47.63;59.87;;
76339;Laerm;26644;50.248;19.032;2023-06-10T03:44:28;50.53;47.13;58.21;;
76339;Laerm;26644;50.248;19.032;2023-06-10T03:47:34;51.26;47.58;58.27;;
76339;Laerm;26644;50.248;19.032;2023-06-10T03:50:42;50.83;47.01;67.51;;
76339;Laerm;26644;50.248;19.032;2023-06-10T03:53:49;54.34;46.21;76.35;;
76339;Laerm;26644;50.248;19.032;2023-06-10T03:56:54;49.71;46.23;55.88;;
76339;Laerm;26644;50.248;19.032;2023-06-10T04:00:03;49.16;45.13;58.18;;
76339;Laerm;26644;50.248;19.032;2023-06-10T04:03:16;48.50;45.13;55.02;;
76339;Laerm;26644;50.248;19.032;2023-06-10T04:06:26;52.31;45.27;71.27;;
76339;Laerm;26644;50.248;19.032;2023-06-10T04:09:31;49.46;45.64;61.17;;
76339;Laerm;26644;50.248;19.032;2023-06-10T04:12:36;51.15;45.43;65.56;;
76339;Laerm;26644;50.248;19.032;2023-06-10T04:15:44;51.64;45.74;72.99;;
76339;Laerm;26644;50.248;19.032;2023-06-10T04:18:52;50.59;46.05;70.07;;
76339;Laerm;26644;50.248;19.032;2023-06-10T04:22:00;49.38;45.63;63.30;;
76339;Laerm;26644;50.248;19.032;2023-06-10T04:25:09;48.48;45.08;58.02;;
76339;Laerm;26644;50.248;19.032;2023-06-10T04:28:16;51.56;46.12;71.01;;
76339;Laerm;26644;50.248;19.032;2023-06-10T04:31:24;50.48;45.41;66.34;;
76339;Laerm;26644;50.248;19.032;2023-06-10T04:34:29;49.67;45.59;55.96;;
76339;Laerm;26644;50.248;19.032;2023-06-10T04:37:34;49.49;46.07;59.18;;
76339;Laerm;26644;50.248;19.032;2023-06-10T04:40:39;50.37;45.84;66.14;;
76339;Laerm;26644;50.248;19.032;2023-06-10T04:43:46;52.78;48.73;65.49;;
76339;Laerm;26644;50.248;19.032;2023-06-10T04:46:54;53.03;47.83;61.33;;
76339;Laerm;26644;50.248;19.032;2023-06-10T04:50:00;51.17;47.03;62.23;;
76339;Laerm;26644;50.248;19.032;2023-06-10T04:53:05;50.38;47.22;59.20;;
76339;Laerm;26644;50.248;19.032;2023-06-10T04:56:13;50.42;47.70;57.99;;
76339;Laerm;26644;50.248;19.032;2023-06-10T04:59:18;52.79;48.13;63.46;;
76339;Laerm;26644;50.248;19.032;2023-06-10T05:02:25;56.34;50.32;71.04;;
76339;Laerm;26644;50.248;19.032;2023-06-10T05:05:30;57.49;49.74;69.62;;
76339;Laerm;26644;50.248;19.032;2023-06-10T05:08:36;55.02;50.86;70.20;;
76339;Laerm;26644;50.248;19.032;2023-06-10T05:11:40;51.67;48.57;61.81;;
76339;Laerm;26644;50.248;19.032;2023-06-10T05:14:47;54.02;50.31;66.15;;
76339;Laerm;26644;50.248;19.032;2023-06-10T05:17:56;51.86;48.18;64.78;;
76339;Laerm;26644;50.248;19.032;2023-06-10T05:21:03;55.01;49.29;73.89;;
76339;Laerm;26644;50.248;19.032;2023-06-10T05:24:08;56.41;49.76;77.28;;
76339;Laerm;26644;50.248;19.032;2023-06-10T05:27:14;55.51;49.07;77.88;;
76339;Laerm;26644;50.248;19.032;2023-06-10T05:30:18;53.17;48.74;71.07;;
76339;Laerm;26644;50.248;19.032;2023-06-10T05:33:26;56.29;48.66;78.76;;
76339;Laerm;26644;50.248;19.032;2023-06-10T05:36:31;60.99;49.14;78.56;;
76339;Laerm;26644;50.248;19.032;2023-06-10T05:39:36;58.41;49.69;77.21;;
76339;Laerm;26644;50.248;19.032;2023-06-10T05:42:41;55.95;49.94;74.68;;
76339;Laerm;26644;50.248;19.032;2023-06-10T05:45:46;55.54;50.85;71.79;;
76339;Laerm;26644;50.248;19.032;2023-06-10T05:48:53;54.60;49.30;72.81;;
76339;Laerm;26644;50.248;19.032;2023-06-10T05:51:59;56.37;50.10;77.14;;
76339;Laerm;26644;50.248;19.032;2023-06-10T05:55:04;56.20;50.20;73.41;;
76339;Laerm;26644;50.248;19.032;2023-06-10T05:58:10;54.52;49.26;71.33;;
76339;Laerm;26644;50.248;19.032;2023-06-10T06:01:14;54.09;49.08;72.10;;
76339;Laerm;26644;50.248;19.032;2023-06-10T06:04:22;51.74;47.20;67.80;;
76339;Laerm;26644;50.248;19.032;2023-06-10T06:07:27;52.56;46.79;71.13;;
76339;Laerm;26644;50.248;19.032;2023-06-10T06:10:32;53.03;47.76;71.04;;
76339;Laerm;26644;50.248;19.032;2023-06-10T06:13:37;56.91;48.60;82.67;;
76339;Laerm;26644;50.248;19.032;2023-06-10T06:16:43;51.88;48.50;70.29;;
76339;Laerm;26644;50.248;19.032;2023-06-10T06:19:50;50.73;47.13;58.57;;
76339;Laerm;26644;50.248;19.032;2023-06-10T06:22:55;54.41;46.98;78.36;;
76339;Laerm;26644;50.248;19.032;2023-06-10T06:26:00;54.87;47.58;76.49;;
76339;Laerm;26644;50.248;19.032;2023-06-10T06:29:05;62.88;49.49;95.72;;
76339;Laerm;26644;50.248;19.032;2023-06-10T06:32:09;54.01;49.40;63.76;;
76339;Laerm;26644;50.248;19.032;2023-06-10T06:35:18;61.33;52.10;83.91;;
76339;Laerm;26644;50.248;19.032;2023-06-10T06:38:22;60.91;52.48;75.20;;
76339;Laerm;26644;50.248;19.032;2023-06-10T06:41:28;69.21;59.36;90.14;;
76339;Laerm;26644;50.248;19.032;2023-06-10T06:44:33;60.13;53.52;92.63;;
76339;Laerm;26644;50.248;19.032;2023-06-10T06:47:38;58.80;52.93;88.35;;
76339;Laerm;26644;50.248;19.032;2023-06-10T06:50:45;58.95;53.59;87.30;;
76339;Laerm;26644;50.248;19.032;2023-06-10T06:53:50;59.28;54.25;81.80;;
76339;Laerm;26644;50.248;19.032;2023-06-10T06:56:58;59.92;55.01;85.11;;
76339;Laerm;26644;50.248;19.032;2023-06-10T07:00:05;59.56;55.73;82.30;;
76339;Laerm;26644;50.248;19.032;2023-06-10T07:03:10;59.01;55.34;83.38;;
76339;Laerm;26644;50.248;19.032;2023-06-10T07:06:18;57.38;53.44;73.57;;
76339;Laerm;26644;50.248;19.032;2023-06-10T07:09:22;54.72;50.97;69.18;;
76339;Laerm;26644;50.248;19.032;2023-06-10T07:12:27;52.90;50.28;62.06;;
76339;Laerm;26644;50.248;19.032;2023-06-10T07:15:33;52.74;48.89;67.09;;
76339;Laerm;26644;50.248;19.032;2023-06-10T07:18:39;52.81;49.19;68.23;;
76339;Laerm;26644;50.248;19.032;2023-06-10T07:21:46;54.60;49.66;75.82;;
76339;Laerm;26644;50.248;19.032;2023-06-10T07:24:51;53.18;48.45;73.70;;
76339;Laerm;26644;50.248;19.032;2023-06-10T07:27:56;54.69;49.68;78.66;;
76339;Laerm;26644;50.248;19.032;2023-06-10T07:31:02;54.21;49.30;70.43;;
76339;Laerm;26644;50.248;19.032;2023-06-10T07:34:06;54.07;49.69;73.48;;
76339;Laerm;26644;50.248;19.032;2023-06-10T07:37:14;54.81;49.25;77.54;;
76339;Laerm;26644;50.248;19.032;2023-06-10T07:40:21;54.45;49.67;70.16;;
76339;Laerm;26644;50.248;19.032;2023-06-10T07:43:26;52.83;48.30;69.54;;
76339;Laerm;26644;50.248;19.032;2023-06-10T07:46:30;55.90;49.43;80.38;;
76339;Laerm;26644;50.248;19.032;2023-06-10T07:49:36;53.52;49.87;67.92;;
76339;Laerm;26644;50.248;19.032;2023-06-10T07:52:43;53.51;49.39;69.86;;
76339;Laerm;26644;50.248;19.032;2023-06-10T07:55:49;56.26;49.59;81.75;;
76339;Laerm;26644;50.248;19.032;2023-06-10T07:58:54;53.35;49.25;70.29;;
76339;Laerm;26644;50.248;19.032;2023-06-10T08:01:59;53.78;49.49;68.75;;
76339;Laerm;26644;50.248;19.032;2023-06-10T08:05:05;54.19;49.34;81.33;;
76339;Laerm;26644;50.248;19.032;2023-06-10T08:08:13;56.24;49.73;76.31;;
76339;Laerm;26644;50.248;19.032;2023-06-10T08:11:18;54.60;49.57;70.91;;
76339;Laerm;26644;50.248;19.032;2023-06-10T08:14:23;55.87;49.53;73.48;;
76339;Laerm;26644;50.248;19.032;2023-06-10T08:17:27;54.95;49.33;71.52;;
76339;Laerm;26644;50.248;19.032;2023-06-10T08:20:33;56.08;49.47;74.80;;
76339;Laerm;26644;50.248;19.032;2023-06-10T08:23:40;52.72;48.37;72.55;;
76339;Laerm;26644;50.248;19.032;2023-06-10T08:26:46;55.29;49.90;76.51;;
76339;Laerm;26644;50.248;19.032;2023-06-10T08:29:50;53.60;49.02;74.16;;
76339;Laerm;26644;50.248;19.032;2023-06-10T08:32:56;56.36;49.24;77.58;;
76339;Laerm;26644;50.248;19.032;2023-06-10T08:36:00;54.50;48.24;79.07;;
76339;Laerm;26644;50.248;19.032;2023-06-10T08:39:09;56.71;48.95;77.92;;
76339;Laerm;26644;50.248;19.032;2023-06-10T08:42:24;52.97;49.20;70.90;;
76339;Laerm;26644;50.248;19.032;2023-06-10T08:45:35;53.34;49.05;65.31;;
76339;Laerm;26644;50.248;19.032;2023-06-10T08:48:43;53.60;48.63;71.00;;
76339;Laerm;26644;50.248;19.032;2023-06-10T08:51:50;53.20;49.17;69.79;;
76339;Laerm;26644;50.248;19.032;2023-06-10T08:55:03;52.54;48.81;68.08;;
76339;Laerm;26644;50.248;19.032;2023-06-10T08:58:11;52.82;49.00;70.84;;
76339;Laerm;26644;50.248;19.032;2023-06-10T09:01:17;54.42;49.21;79.59;;
76339;Laerm;26644;50.248;19.032;2023-06-10T09:04:24;52.93;48.93;70.98;;
76339;Laerm;26644;50.248;19.032;2023-06-10T09:07:31;52.23;48.15;67.57;;
76339;Laerm;26644;50.248;19.032;2023-06-10T09:10:41;51.95;48.50;66.96;;
76339;Laerm;26644;50.248;19.032;2023-06-10T09:13:46;53.77;47.96;72.92;;
76339;Laerm;26644;50.248;19.032;2023-06-10T09:16:52;52.96;48.11;66.09;;
76339;Laerm;26644;50.248;19.032;2023-06-10T09:20:00;51.59;48.03;66.53;;
76339;Laerm;26644;50.248;19.032;2023-06-10T09:23:07;51.86;47.70;69.27;;
76339;Laerm;26644;50.248;19.032;2023-06-10T09:26:14;52.58;47.13;73.82;;
76339;Laerm;26644;50.248;19.032;2023-06-10T09:29:19;51.84;47.12;69.45;;
76339;Laerm;26644;50.248;19.032;2023-06-10T09:32:24;51.57;47.68;65.49;;
76339;Laerm;26644;50.248;19.032;2023-06-10T09:35:31;55.01;47.62;79.88;;
76339;Laerm;26644;50.248;19.032;2023-06-10T09:38:36;53.14;48.79;70.50;;
76339;Laerm;26644;50.248;19.032;2023-06-10T09:41:46;55.49;47.93;74.98;;
76339;Laerm;26644;50.248;19.032;2023-06-10T09:44:51;56.68;49.19;73.89;;
76339;Laerm;26644;50.248;19.032;2023-06-10T09:47:56;54.13;49.07;73.70;;
76339;Laerm;26644;50.248;19.032;2023-06-10T09:51:01;53.11;48.67;66.52;;
76339;Laerm;26644;50.248;19.032;2023-06-10T09:54:06;53.26;49.11;70.79;;
76339;Laerm;26644;50.248;19.032;2023-06-10T09:57:14;53.32;49.23;70.81;;
76339;Laerm;26644;50.248;19.032;2023-06-10T10:00:23;53.06;48.56;69.92;;
76339;Laerm;26644;50.248;19.032;2023-06-10T10:03:27;57.06;48.50;80.55;;
76339;Laerm;26644;50.248;19.032;2023-06-10T10:06:35;58.34;50.21;77.87;;
76339;Laerm;26644;50.248;19.032;2023-06-10T10:09:41;54.54;49.48;70.70;;
76339;Laerm;26644;50.248;19.032;2023-06-10T10:12:54;55.99;49.55;76.77;;
76339;Laerm;26644;50.248;19.032;2023-06-10T10:16:11;55.80;49.63;75.38;;
76339;Laerm;26644;50.248;19.032;2023-06-10T10:19:27;59.66;49.84;79.75;;
76339;Laerm;26644;50.248;19.032;2023-06-10T10:22:38;58.59;49.78;78.93;;
76339;Laerm;26644;50.248;19.032;2023-06-10T10:25:52;56.81;49.58;73.95;;
76339;Laerm;26644;50.248;19.032;2023-06-10T10:29:13;56.48;49.12;76.69;;
76339;Laerm;26644;50.248;19.032;2023-06-10T10:32:29;54.91;49.88;72.33;;
76339;Laerm;26644;50.248;19.032;2023-06-10T10:35:37;55.12;48.72;81.22;;
76339;Laerm;26644;50.248;19.032;2023-06-10T10:38:45;56.97;50.24;77.48;;
76339;Laerm;26644;50.248;19.032;2023-06-10T10:41:51;55.56;49.94;77.66;;
76339;Laerm;26644;50.248;19.032;2023-06-10T10:44:59;66.46;52.02;88.41;;
76339;Laerm;26644;50.248;19.032;2023-06-10T10:48:09;67.20;53.27;84.70;;
76339;Laerm;26644;50.248;19.032;2023-06-10T10:51:15;63.01;52.81;84.64;;
76339;Laerm;26644;50.248;19.032;2023-06-10T10:54:29;60.96;52.33;83.95;;
76339;Laerm;26644;50.248;19.032;2023-06-10T10:57:38;64.39;52.09;85.48;;
76339;Laerm;26644;50.248;19.032;2023-06-10T11:00:46;67.28;52.47;89.58;;
76339;Laerm;26644;50.248;19.032;2023-06-10T11:03:57;60.30;50.80;84.80;;
76339;Laerm;26644;50.248;19.032;2023-06-10T11:07:07;54.36;50.04;67.66;;
76339;Laerm;26644;50.248;19.032;2023-06-10T11:10:13;54.27;50.34;69.71;;
76339;Laerm;26644;50.248;19.032;2023-06-10T11:13:21;59.31;51.04;80.80;;
76339;Laerm;26644;50.248;19.032;2023-06-10T11:16:38;62.81;50.84;83.96;;
76339;Laerm;26644;50.248;19.032;2023-06-10T11:19:45;54.28;50.48;67.08;;
76339;Laerm;26644;50.248;19.032;2023-06-10T11:22:59;53.84;49.69;70.06;;
76339;Laerm;26644;50.248;19.032;2023-06-10T11:26:30;54.33;49.62;71.50;;
76339;Laerm;26644;50.248;19.032;2023-06-10T11:29:38;55.43;49.27;76.45;;
76339;Laerm;26644;50.248;19.032;2023-06-10T11:32:50;55.76;49.28;73.10;;
76339;Laerm;26644;50.248;19.032;2023-06-10T11:35:57;57.43;49.68;80.04;;
76339;Laerm;26644;50.248;19.032;2023-06-10T11:39:04;62.19;50.16;80.85;;
76339;Laerm;26644;50.248;19.032;2023-06-10T11:42:11;53.77;48.93;67.08;;
76339;Laerm;26644;50.248;19.032;2023-06-10T11:45:16;55.44;48.58;76.26;;
76339;Laerm;26644;50.248;19.032;2023-06-10T11:48:24;59.20;50.11;77.60;;
76339;Laerm;26644;50.248;19.032;2023-06-10T11:51:32;61.54;51.07;87.26;;
76339;Laerm;26644;50.248;19.032;2023-06-10T11:54:38;61.48;50.11;82.77;;
76339;Laerm;26644;50.248;19.032;2023-06-10T11:57:43;59.13;50.03;78.13;;
76339;Laerm;26644;50.248;19.032;2023-06-10T12:00:51;58.69;49.58;81.94;;
76339;Laerm;26644;50.248;19.032;2023-06-10T12:04:05;59.44;50.73;80.09;;
76339;Laerm;26644;50.248;19.032;2023-06-10T12:07:17;58.16;50.29;76.43;;
76339;Laerm;26644;50.248;19.032;2023-06-10T12:10:24;56.83;48.68;79.34;;
76339;Laerm;26644;50.248;19.032;2023-06-10T12:13:29;56.45;50.12;75.22;;
76339;Laerm;26644;50.248;19.032;2023-06-10T12:16:34;57.82;49.77;81.21;;
76339;Laerm;26644;50.248;19.032;2023-06-10T12:19:42;62.75;50.49;82.08;;
76339;Laerm;26644;50.248;19.032;2023-06-10T12:22:46;53.72;49.12;68.71;;
76339;Laerm;26644;50.248;19.032;2023-06-10T12:25:54;62.93;50.39;81.78;;
76339;Laerm;26644;50.248;19.032;2023-06-10T12:29:00;59.53;49.65;80.30;;
76339;Laerm;26644;50.248;19.032;2023-06-10T12:32:06;56.36;50.26;75.91;;
76339;Laerm;26644;50.248;19.032;2023-06-10T12:35:18;58.42;50.62;80.62;;
76339;Laerm;26644;50.248;19.032;2023-06-10T12:38:25;54.77;49.32;73.48;;
76339;Laerm;26644;50.248;19.032;2023-06-10T12:41:31;57.70;49.40;77.30;;
76339;Laerm;26644;50.248;19.032;2023-06-10T12:44:39;53.38;50.11;66.58;;
76339;Laerm;26644;50.248;19.032;2023-06-10T12:47:44;61.37;49.93;84.16;;
76339;Laerm;26644;50.248;19.032;2023-06-10T12:50:55;57.49;49.18;79.28;;
76339;Laerm;26644;50.248;19.032;2023-06-10T12:54:00;58.60;49.48;79.26;;
76339;Laerm;26644;50.248;19.032;2023-06-10T12:57:06;59.14;50.01;80.82;;
76339;Laerm;26644;50.248;19.032;2023-06-10T13:00:14;55.55;49.37;78.66;;
76339;Laerm;26644;50.248;19.032;2023-06-10T13:03:19;64.37;49.82;88.33;;
76339;Laerm;26644;50.248;19.032;2023-06-10T13:06:26;57.48;50.03;77.13;;
76339;Laerm;26644;50.248;19.032;2023-06-10T13:09:34;55.60;48.96;73.93;;
76339;Laerm;26644;50.248;19.032;2023-06-10T13:12:38;61.28;50.23;82.71;;
76339;Laerm;26644;50.248;19.032;2023-06-10T13:15:43;56.19;48.94;71.66;;
76339;Laerm;26644;50.248;19.032;2023-06-10T13:18:48;54.68;48.35;74.35;;
76339;Laerm;26644;50.248;19.032;2023-06-10T13:21:56;54.06;49.00;73.61;;
76339;Laerm;26644;50.248;19.032;2023-06-10T13:25:01;59.22;49.16;78.75;;
76339;Laerm;26644;50.248;19.032;2023-06-10T13:28:07;60.44;49.12;77.52;;
76339;Laerm;26644;50.248;19.032;2023-06-10T13:31:11;60.14;50.06;79.50;;
76339;Laerm;26644;50.248;19.032;2023-06-10T13:34:16;60.82;49.82;82.36;;
76339;Laerm;26644;50.248;19.032;2023-06-10T13:37:23;60.71;50.01;81.44;;
76339;Laerm;26644;50.248;19.032;2023-06-10T13:40:29;57.93;48.29;79.71;;
76339;Laerm;26644;50.248;19.032;2023-06-10T13:43:33;56.04;48.70;76.28;;
76339;Laerm;26644;50.248;19.032;2023-06-10T13:46:38;53.64;47.61;74.50;;
76339;Laerm;26644;50.248;19.032;2023-06-10T13:49:43;57.12;48.11;77.29;;
76339;Laerm;26644;50.248;19.032;2023-06-10T13:52:51;54.64;48.66;69.32;;
76339;Laerm;26644;50.248;19.032;2023-06-10T13:55:55;54.16;48.75;72.37;;
76339;Laerm;26644;50.248;19.032;2023-06-10T13:59:01;54.15;48.56;74.60;;
76339;Laerm;26644;50.248;19.032;2023-06-10T14:02:05;54.62;49.84;72.14;;
76339;Laerm;26644;50.248;19.032;2023-06-10T14:05:11;64.94;51.08;81.45;;
76339;Laerm;26644;50.248;19.032;2023-06-10T14:08:18;58.34;50.62;83.35;;
76339;Laerm;26644;50.248;19.032;2023-06-10T14:11:24;54.61;48.04;75.73;;
76339;Laerm;26644;50.248;19.032;2023-06-10T14:14:28;52.89;48.94;70.53;;
76339;Laerm;26644;50.248;19.032;2023-06-10T14:17:35;57.88;49.22;75.07;;
76339;Laerm;26644;50.248;19.032;2023-06-10T14:20:39;60.68;48.65;91.42;;
76339;Laerm;26644;50.248;19.032;2023-06-10T14:23:47;65.76;47.91;90.17;;
76339;Laerm;26644;50.248;19.032;2023-06-10T14:26:54;70.73;55.43;92.72;;
76339;Laerm;26644;50.248;19.032;2023-06-10T14:30:00;73.93;66.28;99.51;;
76339;Laerm;26644;50.248;19.032;2023-06-10T14:33:05;71.73;64.25;92.00;;
76339;Laerm;26644;50.248;19.032;2023-06-10T14:36:11;66.48;60.46;96.31;;
76339;Laerm;26644;50.248;19.032;2023-06-10T14:39:18;61.63;54.28;81.03;;
76339;Laerm;26644;50.248;19.032;2023-06-10T14:42:23;57.95;53.08;81.96;;
76339;Laerm;26644;50.248;19.032;2023-06-10T14:45:28;56.00;52.06;77.23;;
76339;Laerm;26644;50.248;19.032;2023-06-10T14:48:33;56.36;51.70;74.89;;
76339;Laerm;26644;50.248;19.032;2023-06-10T14:51:37;55.42;51.48;74.54;;
76339;Laerm;26644;50.248;19.032;2023-06-10T14:54:45;54.69;50.93;70.36;;
76339;Laerm;26644;50.248;19.032;2023-06-10T14:57:50;54.38;51.33;71.33;;
76339;Laerm;26644;50.248;19.032;2023-06-10T15:00:55;54.11;50.57;73.03;;
76339;Laerm;26644;50.248;19.032;2023-06-10T15:04:00;52.34;49.32;63.02;;
76339;Laerm;26644;50.248;19.032;2023-06-10T15:07:05;53.22;49.16;73.62;;
76339;Laerm;26644;50.248;19.032;2023-06-10T15:10:12;55.80;50.30;74.49;;
76339;Laerm;26644;50.248;19.032;2023-06-10T15:13:18;52.66;49.86;73.91;;
76339;Laerm;26644;50.248;19.032;2023-06-10T15:16:22;54.40;49.34;71.99;;
76339;Laerm;26644;50.248;19.032;2023-06-10T15:19:28;52.48;49.05;65.60;;
76339;Laerm;26644;50.248;19.032;2023-06-10T15:22:32;52.69;49.15;65.60;;
76339;Laerm;26644;50.248;19.032;2023-06-10T15:25:40;56.03;48.75;78.43;;
76339;Laerm;26644;50.248;19.032;2023-06-10T15:28:45;52.01;48.34;61.35;;
76339;Laerm;26644;50.248;19.032;2023-06-10T15:31:50;54.62;48.10;66.36;;
76339;Laerm;26644;50.248;19.032;2023-06-10T15:34:55;51.02;48.17;59.43;;
76339;Laerm;26644;50.248;19.032;2023-06-10T15:38:00;50.80;47.80;58.75;;
76339;Laerm;26644;50.248;19.032;2023-06-10T15:41:07;50.48;47.58;59.73;;
76339;Laerm;26644;50.248;19.032;2023-06-10T15:44:12;50.94;47.09;62.96;;
76339;Laerm;26644;50.248;19.032;2023-06-10T15:47:38;52.86;48.82;71.00;;
76339;Laerm;26644;50.248;19.032;2023-06-10T15:50:44;50.57;47.77;58.11;;
76339;Laerm;26644;50.248;19.032;2023-06-10T15:53:49;51.10;47.65;63.34;;
76339;Laerm;26644;50.248;19.032;2023-06-10T15:56:57;51.46;47.62;68.47;;
76339;Laerm;26644;50.248;19.032;2023-06-10T16:00:06;59.81;47.60;76.89;;
76339;Laerm;26644;50.248;19.032;2023-06-10T16:03:12;51.20;47.95;67.46;;
76339;Laerm;26644;50.248;19.032;2023-06-10T16:06:17;51.58;48.34;62.54;;
76339;Laerm;26644;50.248;19.032;2023-06-10T16:09:22;51.16;48.16;64.15;;
76339;Laerm;26644;50.248;19.032;2023-06-10T16:12:29;51.78;48.24;62.94;;
76339;Laerm;26644;50.248;19.032;2023-06-10T16:15:34;52.09;47.95;63.50;;
76339;Laerm;26644;50.248;19.032;2023-06-10T16:18:39;51.05;48.12;58.23;;
76339;Laerm;26644;50.248;19.032;2023-06-10T16:21:44;57.34;48.04;74.98;;
76339;Laerm;26644;50.248;19.032;2023-06-10T16:24:48;51.44;48.17;57.43;;
76339;Laerm;26644;50.248;19.032;2023-06-10T16:27:57;51.77;47.99;61.04;;
76339;Laerm;26644;50.248;19.032;2023-06-10T16:31:01;51.85;48.43;66.09;;
76339;Laerm;26644;50.248;19.032;2023-06-10T16:34:07;52.52;48.92;67.78;;
76339;Laerm;26644;50.248;19.032;2023-06-10T16:37:11;51.92;48.77;69.40;;
76339;Laerm;26644;50.248;19.032;2023-06-10T16:40:17;50.99;47.90;61.62;;
76339;Laerm;26644;50.248;19.032;2023-06-10T16:43:24;51.51;48.13;62.85;;
76339;Laerm;26644;50.248;19.032;2023-06-10T16:46:30;51.53;47.43;67.80;;
76339;Laerm;26644;50.248;19.032;2023-06-10T16:49:35;51.80;47.65;73.23;;
76339;Laerm;26644;50.248;19.032;2023-06-10T16:52:42;52.46;48.50;61.59;;
76339;Laerm;26644;50.248;19.032;2023-06-10T16:55:46;52.55;48.31;67.69;;
76339;Laerm;26644;50.248;19.032;2023-06-10T16:58:54;53.97;48.21;80.82;;
76339;Laerm;26644;50.248;19.032;2023-06-10T17:01:59;52.30;47.92;68.28;;
76339;Laerm;26644;50.248;19.032;2023-06-10T17:05:06;51.53;48.49;68.78;;
76339;Laerm;26644;50.248;19.032;2023-06-10T17:08:10;51.55;48.05;62.97;;
76339;Laerm;26644;50.248;19.032;2023-06-10T17:11:15;51.78;48.54;69.78;;